createdAt,value
2023-11-20T00:01:22.623Z,89.59
2023-11-20T00:03:51.463Z,88.97
2023-11-20T00:06:18.440Z,88.99
2023-11-20T00:08:46.577Z,89.15
2023-11-20T00:11:16.772Z,88.68
2023-11-20T00:13:44.103Z,88.15
2023-11-20T00:16:12.670Z,88.74
2023-11-20T00:18:40.205Z,88.44
2023-11-20T00:21:06.901Z,87.97
2023-11-20T00:23:33.600Z,88.36
2023-11-20T00:26:00.304Z,88.54
2023-11-20T00:28:27.075Z,88.38
2023-11-20T00:30:53.761Z,88.38
2023-11-20T00:33:20.897Z,88.54
2023-11-20T00:35:47.551Z,88.70
2023-11-20T00:38:14.200Z,88.35
2023-11-20T00:40:42.394Z,88.50
2023-11-20T00:43:09.086Z,89.07
2023-11-20T00:45:35.932Z,88.39
2023-11-20T00:48:02.720Z,88.69
2023-11-20T00:50:29.521Z,88.76
2023-11-20T00:52:56.222Z,88.70
2023-11-20T00:55:22.852Z,88.30
2023-11-20T00:57:49.714Z,88.15
2023-11-20T01:00:16.860Z,88.31
2023-11-20T01:02:44.200Z,88.10
2023-11-20T01:05:11.037Z,88.20
2023-11-20T01:07:37.800Z,87.79
2023-11-20T01:10:06.158Z,87.79
2023-11-20T01:12:32.856Z,87.58
2023-11-20T01:14:59.504Z,87.59
2023-11-20T01:17:26.240Z,87.70
2023-11-20T01:19:52.929Z,87.61
2023-11-20T01:22:19.996Z,87.83
2023-11-20T01:24:46.688Z,87.99
2023-11-20T01:27:13.403Z,87.82
2023-11-20T01:29:41.494Z,87.44
2023-11-20T01:32:08.158Z,87.49
2023-11-20T01:34:34.825Z,87.70
2023-11-20T01:37:01.569Z,87.43
2023-11-20T01:39:28.309Z,87.40
2023-11-20T01:41:55.198Z,87.36
2023-11-20T01:44:21.964Z,87.45
2023-11-20T01:46:48.681Z,87.31
2023-11-20T01:49:15.331Z,87.34
2023-11-20T01:51:41.999Z,87.45
2023-11-20T01:54:09.589Z,87.67
2023-11-20T01:56:36.272Z,87.68
2023-11-20T01:59:05.384Z,87.51
2023-11-20T02:01:34.259Z,87.03
2023-11-20T02:04:02.083Z,86.96
2023-11-20T02:06:28.729Z,87.09
2023-11-20T02:08:55.378Z,86.91
2023-11-20T02:11:22.479Z,87.31
2023-11-20T02:13:52.122Z,87.25
2023-11-20T02:16:18.766Z,87.03
2023-11-20T02:18:45.428Z,87.03
2023-11-20T02:21:12.230Z,87.21
2023-11-20T02:23:38.840Z,87.20
2023-11-20T02:26:28.812Z,87.16
2023-11-20T02:29:22.643Z,87.32
2023-11-20T02:31:49.322Z,87.28
2023-11-20T02:34:17.518Z,87.72
2023-11-20T02:36:44.204Z,87.82
2023-11-20T02:39:10.871Z,87.77
2023-11-20T02:41:37.953Z,87.75
2023-11-20T02:44:05.018Z,87.52
2023-11-20T02:46:31.810Z,87.49
2023-11-20T02:48:59.022Z,87.82
2023-11-20T02:51:26.104Z,87.68
2023-11-20T02:53:52.754Z,87.45
2023-11-20T02:56:19.450Z,87.35
2023-11-20T02:58:46.114Z,87.43
2023-11-20T03:01:12.844Z,86.87
2023-11-20T03:03:40.616Z,86.88
2023-11-20T03:06:07.678Z,87.32
2023-11-20T03:08:34.304Z,87.37
2023-11-20T03:11:00.922Z,87.51
2023-11-20T03:13:27.562Z,87.45
2023-11-20T03:15:54.369Z,87.49
2023-11-20T03:18:21.212Z,87.77
2023-11-20T03:20:47.855Z,87.30
2023-11-20T03:23:14.524Z,87.30
2023-11-20T03:25:42.024Z,87.17
2023-11-20T03:28:08.679Z,87.03
2023-11-20T03:30:35.440Z,86.22
2023-11-20T03:33:02.169Z,87.07
2023-11-20T03:35:28.924Z,86.61
2023-11-20T03:37:56.191Z,86.90
2023-11-20T03:40:23.002Z,87.10
2023-11-20T03:42:49.719Z,86.97
2023-11-20T03:45:16.711Z,86.74
2023-11-20T03:47:43.368Z,86.73
2023-11-20T03:50:10.302Z,86.70
2023-11-20T03:52:36.946Z,86.77
2023-11-20T03:55:04.264Z,86.92
2023-11-20T03:57:30.945Z,86.72
2023-11-20T03:59:57.563Z,86.93
2023-11-20T04:02:24.223Z,87.13
2023-11-20T04:04:51.073Z,86.98
2023-11-20T04:07:17.729Z,87.13
2023-11-20T04:09:44.438Z,87.03
2023-11-20T04:12:11.090Z,86.79
2023-11-20T04:14:37.720Z,86.83
2023-11-20T04:17:04.628Z,86.64
2023-11-20T04:19:31.668Z,87.03
2023-11-20T04:21:58.888Z,87.15
2023-11-20T04:24:25.915Z,87.03
2023-11-20T04:26:52.523Z,87.02
2023-11-20T04:29:19.205Z,87.11
2023-11-20T04:31:45.882Z,87.43
2023-11-20T04:34:12.592Z,87.10
2023-11-20T04:36:39.389Z,86.89
2023-11-20T04:39:06.168Z,87.40
2023-11-20T04:41:32.861Z,86.96
2023-11-20T04:43:59.503Z,87.08
2023-11-20T04:46:26.139Z,86.71
2023-11-20T04:48:52.782Z,86.49
2023-11-20T04:51:20.849Z,86.34
2023-11-20T04:53:47.759Z,86.49
2023-11-20T04:56:14.723Z,86.58
2023-11-20T04:58:41.495Z,86.81
2023-11-20T05:01:08.663Z,86.80
2023-11-20T05:03:37.082Z,86.37
2023-11-20T05:06:07.576Z,86.35
2023-11-20T05:08:34.319Z,86.47
2023-11-20T05:11:00.967Z,86.40
2023-11-20T05:13:27.666Z,86.48
2023-11-20T05:15:54.351Z,86.95
2023-11-20T05:18:21.260Z,86.74
2023-11-20T05:20:47.994Z,86.87
2023-11-20T05:23:14.765Z,87.00
2023-11-20T05:25:41.470Z,87.11
2023-11-20T05:28:08.229Z,86.58
2023-11-20T05:30:34.929Z,86.73
2023-11-20T05:33:02.175Z,86.72
2023-11-20T05:35:28.998Z,86.49
2023-11-20T05:37:55.629Z,86.35
2023-11-20T05:40:22.872Z,86.15
2023-11-20T05:42:49.686Z,86.65
2023-11-20T05:45:16.324Z,86.62
2023-11-20T05:47:43.010Z,86.51
2023-11-20T05:50:09.967Z,86.61
2023-11-20T05:52:36.975Z,86.26
2023-11-20T05:55:03.937Z,86.56
2023-11-20T05:57:31.212Z,86.56
2023-11-20T05:59:57.866Z,86.82
2023-11-20T06:02:24.550Z,86.20
2023-11-20T06:04:51.191Z,86.22
2023-11-20T06:07:17.832Z,86.64
2023-11-20T06:09:44.699Z,85.95
2023-11-20T06:12:11.358Z,86.51
2023-11-20T06:14:38.183Z,86.12
2023-11-20T06:17:05.465Z,86.35
2023-11-20T06:19:32.159Z,85.95
2023-11-20T06:21:59.875Z,85.57
2023-11-20T06:24:26.614Z,85.30
2023-11-20T06:26:53.378Z,85.66
2023-11-20T06:29:20.006Z,85.88
2023-11-20T06:31:46.704Z,86.08
2023-11-20T06:34:13.558Z,85.60
2023-11-20T06:36:40.291Z,85.99
2023-11-20T06:39:07.939Z,86.20
2023-11-20T06:41:36.061Z,86.19
2023-11-20T06:44:02.898Z,86.42
2023-11-20T06:46:29.639Z,86.47
2023-11-20T06:48:56.323Z,87.13
2023-11-20T06:51:23.457Z,87.22
2023-11-20T06:53:50.734Z,87.22
2023-11-20T06:56:18.197Z,87.26
2023-11-20T06:58:45.063Z,87.18
2023-11-20T07:01:11.847Z,87.96
2023-11-20T07:03:41.013Z,87.69
2023-11-20T07:06:07.916Z,88.40
2023-11-20T07:08:34.608Z,88.07
2023-11-20T07:11:01.218Z,88.15
2023-11-20T07:13:27.916Z,88.02
2023-11-20T07:15:54.650Z,88.25
2023-11-20T07:18:21.296Z,88.60
2023-11-20T07:20:47.944Z,88.41
2023-11-20T07:23:14.581Z,88.05
2023-11-20T07:25:44.595Z,88.24
2023-11-20T07:28:11.319Z,88.15
2023-11-20T07:30:38.477Z,88.53
2023-11-20T07:33:05.251Z,88.40
2023-11-20T07:35:34.184Z,88.46
2023-11-20T07:38:01.626Z,88.25
2023-11-20T07:40:28.727Z,88.31
2023-11-20T07:42:55.391Z,87.92
2023-11-20T07:45:22.529Z,88.13
2023-11-20T07:47:49.271Z,88.30
2023-11-20T07:50:16.119Z,88.17
2023-11-20T07:52:43.538Z,88.52
2023-11-20T07:55:10.391Z,88.56
2023-11-20T07:57:37.256Z,88.39
2023-11-20T08:00:05.913Z,87.38
2023-11-20T08:02:32.756Z,87.60
2023-11-20T08:05:00.235Z,87.66
2023-11-20T08:07:27.198Z,86.43
2023-11-20T08:09:54.100Z,86.38
2023-11-20T08:12:20.723Z,85.93
2023-11-20T08:14:48.453Z,86.35
2023-11-20T08:17:18.535Z,86.84
2023-11-20T08:19:45.972Z,86.91
2023-11-20T08:22:12.732Z,87.50
2023-11-20T08:24:39.809Z,87.67
2023-11-20T08:27:06.940Z,87.98
2023-11-20T08:29:33.594Z,87.96
2023-11-20T08:32:00.562Z,88.10
2023-11-20T08:34:28.365Z,88.60
2023-11-20T08:36:55.264Z,88.95
2023-11-20T08:39:23.849Z,89.00
2023-11-20T08:41:50.529Z,88.94
2023-11-20T08:44:17.191Z,88.83
2023-11-20T08:46:44.730Z,88.84
2023-11-20T08:49:11.985Z,88.70
2023-11-20T08:51:42.342Z,88.31
2023-11-20T08:54:13.325Z,88.16
2023-11-20T08:56:39.959Z,88.63
2023-11-20T08:59:07.689Z,88.18
2023-11-20T09:01:35.166Z,87.53
2023-11-20T09:04:04.038Z,86.98
2023-11-20T09:06:32.048Z,87.16
2023-11-20T09:08:58.967Z,87.28
2023-11-20T09:11:25.843Z,87.02
2023-11-20T09:13:52.702Z,85.99
2023-11-20T09:16:20.608Z,86.43
2023-11-20T09:18:47.542Z,86.40
2023-11-20T09:21:14.346Z,86.19
2023-11-20T09:23:41.152Z,86.41
2023-11-20T09:26:12.572Z,86.44
2023-11-20T09:28:43.361Z,86.76
2023-11-20T09:31:20.431Z,87.22
2023-11-20T09:33:48.279Z,87.45
2023-11-20T09:36:15.028Z,87.11
2023-11-20T09:38:41.762Z,86.76
2023-11-20T09:41:08.637Z,87.39
2023-11-20T09:43:36.136Z,87.78
2023-11-20T09:46:07.680Z,87.96
2023-11-20T09:48:34.850Z,87.78
2023-11-20T09:51:07.848Z,88.09
2023-11-20T09:53:39.955Z,87.50
2023-11-20T09:56:12.432Z,87.06
2023-11-20T09:58:40.466Z,87.03
2023-11-20T10:01:08.405Z,86.73
2023-11-20T10:03:37.405Z,86.78
2023-11-20T10:06:06.713Z,86.89
2023-11-20T10:08:35.021Z,86.22
2023-11-20T10:11:01.684Z,86.85
2023-11-20T10:13:28.334Z,86.47
2023-11-20T10:15:55.361Z,86.15
2023-11-20T10:18:22.030Z,86.66
2023-11-20T10:20:50.977Z,86.63
2023-11-20T10:23:22.140Z,86.80
2023-11-20T10:25:48.865Z,86.85
2023-11-20T10:28:15.907Z,87.05
2023-11-20T10:30:46.763Z,87.27
2023-11-20T10:33:20.879Z,87.40
2023-11-20T10:35:50.263Z,87.09
2023-11-20T10:38:17.109Z,87.36
2023-11-20T10:40:45.746Z,87.35
2023-11-20T10:43:12.796Z,87.29
2023-11-20T10:45:39.664Z,87.51
2023-11-20T10:48:08.888Z,86.92
2023-11-20T10:50:36.649Z,87.44
2023-11-20T10:53:07.528Z,87.50
2023-11-20T10:55:42.627Z,87.81
2023-11-20T10:58:10.006Z,87.26
2023-11-20T11:00:38.111Z,87.05
2023-11-20T11:03:14.689Z,86.94
2023-11-20T11:05:44.850Z,87.07
2023-11-20T11:08:12.712Z,86.64
2023-11-20T11:10:45.016Z,86.42
2023-11-20T11:13:12.344Z,86.01
2023-11-20T11:15:39.381Z,85.00
2023-11-20T11:18:07.441Z,85.27
2023-11-20T11:20:41.472Z,85.32
2023-11-20T11:23:11.518Z,85.26
2023-11-20T11:25:49.900Z,85.35
2023-11-20T11:28:19.151Z,85.18
2023-11-20T11:30:46.291Z,84.86
2023-11-20T11:33:31.831Z,85.16
2023-11-20T11:36:10.016Z,85.53
2023-11-20T11:38:50.113Z,84.93
2023-11-20T11:41:35.423Z,85.68
2023-11-20T11:44:23.875Z,84.87
2023-11-20T11:46:55.886Z,85.00
2023-11-20T11:49:24.198Z,84.66
2023-11-20T11:51:56.568Z,84.60
2023-11-20T11:54:25.653Z,85.05
2023-11-20T11:56:58.548Z,84.34
2023-11-20T11:59:32.326Z,83.75
2023-11-20T12:01:59.752Z,83.62
2023-11-20T12:04:57.573Z,83.43
2023-11-20T12:07:36.500Z,83.34
2023-11-20T12:10:05.364Z,83.69
2023-11-20T12:13:21.249Z,83.19
2023-11-20T12:15:58.106Z,83.30
2023-11-20T12:18:26.236Z,83.58
2023-11-20T12:20:53.868Z,83.81
2023-11-20T12:23:24.163Z,83.82
2023-11-20T12:25:51.199Z,83.51
2023-11-20T12:28:17.891Z,84.03
2023-11-20T12:30:45.481Z,84.50
2023-11-20T12:33:12.229Z,84.50
2023-11-20T12:35:40.341Z,83.40
2023-11-20T12:38:07.788Z,83.52
2023-11-20T12:40:34.458Z,83.87
2023-11-20T12:43:01.497Z,84.12
2023-11-20T12:45:28.221Z,84.08
2023-11-20T12:47:55.491Z,84.14
2023-11-20T12:50:25.279Z,83.76
2023-11-20T12:52:53.054Z,83.42
2023-11-20T12:55:20.743Z,83.62
2023-11-20T12:57:48.350Z,83.41
2023-11-20T13:00:16.081Z,83.45
2023-11-20T13:03:15.393Z,83.49
2023-11-20T13:05:47.788Z,82.46
2023-11-20T13:08:21.891Z,83.40
2023-11-20T13:10:55.896Z,83.37
2023-11-20T13:13:27.306Z,83.61
2023-11-20T13:15:58.381Z,83.42
2023-11-20T13:18:28.652Z,83.09
2023-11-20T13:20:56.188Z,83.24
2023-11-20T13:23:35.096Z,83.27
2023-11-20T13:26:01.729Z,82.86
2023-11-20T13:28:32.229Z,82.98
2023-11-20T13:31:04.686Z,82.56
2023-11-20T13:33:33.255Z,82.41
2023-11-20T13:36:03.709Z,82.67
2023-11-20T13:38:31.153Z,82.77
2023-11-20T13:40:58.611Z,82.86
2023-11-20T13:43:25.909Z,82.82
2023-11-20T13:45:59.770Z,82.47
2023-11-20T13:48:26.937Z,82.67
2023-11-20T13:50:54.315Z,82.53
2023-11-20T13:53:22.295Z,82.92
2023-11-20T13:55:50.206Z,82.90
2023-11-20T13:58:23.772Z,82.89
2023-11-20T14:00:54.572Z,83.78
2023-11-20T14:03:21.980Z,83.72
2023-11-20T14:05:49.147Z,83.50
2023-11-20T14:08:16.819Z,84.19
2023-11-20T14:10:46.067Z,84.33
2023-11-20T14:13:13.183Z,84.01
2023-11-20T14:15:39.865Z,84.22
2023-11-20T14:18:06.699Z,83.83
2023-11-20T14:20:35.182Z,84.20
2023-11-20T14:23:01.918Z,83.95
2023-11-20T14:25:32.743Z,83.69
2023-11-20T14:27:59.836Z,83.75
2023-11-20T14:30:26.655Z,84.12
2023-11-20T14:32:54.697Z,84.26
2023-11-20T14:35:22.935Z,84.53
2023-11-20T14:37:49.753Z,84.61
2023-11-20T14:40:18.600Z,84.69
2023-11-20T14:42:48.376Z,84.44
2023-11-20T14:45:16.166Z,84.37
2023-11-20T14:47:53.928Z,84.60
2023-11-20T14:50:21.218Z,84.22
2023-11-20T14:52:48.807Z,84.51
2023-11-20T14:55:15.491Z,83.79
2023-11-20T14:57:42.931Z,83.74
2023-11-20T15:00:16.915Z,84.14
2023-11-20T15:02:48.997Z,84.19
2023-11-20T15:05:16.386Z,84.05
2023-11-20T15:07:46.405Z,84.37
2023-11-20T15:10:14.965Z,84.40
2023-11-20T15:12:52.693Z,84.08
2023-11-20T15:15:21.071Z,82.93
2023-11-20T15:17:48.903Z,83.65
2023-11-20T15:20:16.558Z,83.65
2023-11-20T15:22:44.645Z,82.78
2023-11-20T15:25:12.646Z,83.68
2023-11-20T15:27:40.703Z,83.07
2023-11-20T15:30:09.203Z,83.41
2023-11-20T15:32:36.073Z,82.79
2023-11-20T15:35:04.266Z,83.46
2023-11-20T15:37:33.441Z,83.45
2023-11-20T15:40:00.589Z,83.59
2023-11-20T15:42:27.335Z,83.52
2023-11-20T15:44:54.212Z,84.02
2023-11-20T15:47:24.557Z,83.89
2023-11-20T15:49:51.413Z,83.52
2023-11-20T15:52:18.186Z,83.43
2023-11-20T15:54:44.823Z,83.66
2023-11-20T15:57:11.598Z,84.05
2023-11-20T15:59:38.905Z,83.48
2023-11-20T16:02:05.707Z,83.76
2023-11-20T16:04:32.650Z,84.10
2023-11-20T16:07:00.277Z,83.79
2023-11-20T16:09:27.085Z,84.88
2023-11-20T16:11:53.814Z,84.08
2023-11-20T16:14:25.207Z,84.49
2023-11-20T16:16:54.555Z,84.32
2023-11-20T16:19:23.101Z,84.01
2023-11-20T16:21:49.983Z,84.30
2023-11-20T16:24:17.022Z,84.45
2023-11-20T16:26:43.676Z,84.44
2023-11-20T16:29:10.377Z,84.91
2023-11-20T16:31:37.280Z,84.67
2023-11-20T16:34:04.591Z,84.66
2023-11-20T16:36:31.314Z,85.02
2023-11-20T16:38:58.811Z,84.49
2023-11-20T16:41:25.798Z,84.91
2023-11-20T16:43:52.619Z,84.04
2023-11-20T16:46:24.312Z,84.60
2023-11-20T16:48:51.719Z,84.97
2023-11-20T16:51:21.351Z,85.10
2023-11-20T16:53:48.590Z,84.85
2023-11-20T16:56:15.504Z,85.05
2023-11-20T16:58:42.396Z,84.54
2023-11-20T17:01:11.272Z,84.05
2023-11-20T17:03:38.308Z,83.74
2023-11-20T17:06:07.959Z,84.08
2023-11-20T17:08:35.660Z,83.80
2023-11-20T17:11:02.378Z,84.26
2023-11-20T17:13:29.113Z,84.27
2023-11-20T17:15:56.069Z,84.41
2023-11-20T17:18:22.819Z,84.07
2023-11-20T17:20:51.123Z,84.23
2023-11-20T17:23:17.894Z,84.02
2023-11-20T17:25:44.667Z,83.59
2023-11-20T17:28:11.521Z,83.61
2023-11-20T17:30:38.305Z,83.65
2023-11-20T17:33:05.069Z,83.51
2023-11-20T17:35:31.781Z,83.34
2023-11-20T17:37:58.484Z,82.79
2023-11-20T17:40:25.691Z,82.66
2023-11-20T17:42:52.731Z,82.79
2023-11-20T17:45:19.472Z,82.28
2023-11-20T17:47:46.235Z,82.75
2023-11-20T17:50:13.211Z,82.78
2023-11-20T17:52:45.036Z,82.97
2023-11-20T17:55:13.087Z,82.49
2023-11-20T17:57:40.549Z,82.77
2023-11-20T18:00:11.851Z,82.66
2023-11-20T18:02:39.017Z,82.32
2023-11-20T18:05:08.802Z,83.29
2023-11-20T18:07:37.455Z,83.24
2023-11-20T18:10:06.707Z,82.90
2023-11-20T18:12:33.463Z,82.90
2023-11-20T18:15:19.620Z,82.42
2023-11-20T18:17:46.356Z,82.93
2023-11-20T18:20:13.798Z,82.77
2023-11-20T18:22:41.765Z,82.69
2023-11-20T18:25:08.732Z,83.29
2023-11-20T18:27:36.700Z,83.24
2023-11-20T18:30:03.891Z,82.94
2023-11-20T18:35:19.782Z,83.25
2023-11-20T18:38:25.437Z,82.76
2023-11-20T18:45:07.223Z,82.76
2023-11-20T18:47:49.237Z,82.94
2023-11-20T18:50:38.451Z,81.88
2023-11-20T18:53:10.301Z,81.91
2023-11-20T18:58:36.591Z,81.71
2023-11-20T19:01:08.742Z,81.32
2023-11-20T19:03:44.552Z,81.29
2023-11-20T19:06:13.435Z,82.01
2023-11-20T19:08:47.111Z,81.38
2023-11-20T19:11:40.089Z,81.70
2023-11-20T19:14:22.853Z,80.54
2023-11-20T19:22:48.457Z,80.17
2023-11-20T19:25:27.219Z,79.68
2023-11-20T19:28:10.501Z,79.75
2023-11-20T19:30:52.846Z,79.59
2023-11-20T19:33:20.370Z,79.36
2023-11-20T19:36:06.224Z,80.13
2023-11-20T19:38:35.647Z,79.25
2023-11-20T19:41:13.399Z,79.12
2023-11-20T19:43:51.598Z,78.16
2023-11-20T19:46:41.665Z,78.80
2023-11-20T19:49:16.206Z,78.61
2023-11-20T19:51:47.727Z,78.47
2023-11-20T19:54:23.385Z,79.48
2023-11-20T19:56:55.030Z,79.50
2023-11-20T19:59:29.081Z,79.05
2023-11-20T20:02:01.110Z,79.26
2023-11-20T20:04:31.420Z,79.07
2023-11-20T20:07:04.901Z,79.91
2023-11-20T20:09:46.919Z,79.90
2023-11-20T20:15:11.401Z,80.84
2023-11-20T20:17:42.044Z,80.63
2023-11-20T20:20:24.424Z,80.54
2023-11-20T20:23:04.758Z,80.43
2023-11-20T20:25:34.430Z,80.52
2023-11-20T20:28:11.761Z,80.35
2023-11-20T20:30:47.952Z,80.86
2023-11-20T20:40:28.137Z,81.04
2023-11-20T20:43:06.807Z,80.71
2023-11-20T20:46:06.210Z,81.05
2023-11-20T20:49:05.421Z,81.13
2023-11-20T20:54:21.161Z,80.69
2023-11-20T20:56:55.591Z,81.03
2023-11-20T20:59:35.017Z,81.03
2023-11-20T21:02:09.983Z,80.54
2023-11-20T21:04:51.990Z,81.14
2023-11-20T21:07:24.040Z,80.96
2023-11-20T21:10:06.465Z,81.20
2023-11-20T21:12:42.719Z,81.60
2023-11-20T21:15:10.729Z,81.75
2023-11-20T21:18:04.174Z,81.61
2023-11-20T21:20:43.595Z,81.66
2023-11-20T21:26:11.649Z,81.98
2023-11-20T21:29:17.669Z,82.17
2023-11-20T21:32:03.467Z,81.98
2023-11-20T21:41:16.285Z,82.75
2023-11-20T21:43:49.838Z,82.19
2023-11-20T21:46:20.295Z,82.38
2023-11-20T21:48:50.989Z,82.60
2023-11-20T21:51:26.033Z,82.66
2023-11-20T21:53:53.291Z,82.71
2023-11-20T21:56:20.919Z,82.04
2023-11-20T21:58:51.323Z,82.28
2023-11-20T22:01:50.284Z,82.55
2023-11-20T22:04:35.785Z,82.50
2023-11-20T22:07:03.319Z,82.86
2023-11-20T22:09:41.684Z,82.11
2023-11-20T22:12:23.231Z,82.51
2023-11-20T22:14:52.374Z,82.36
2023-11-20T22:17:31.756Z,81.97
2023-11-20T22:20:02.697Z,80.69
2023-11-20T22:22:39.840Z,81.08
2023-11-20T22:25:12.451Z,81.33
2023-11-20T22:27:52.966Z,81.37
2023-11-20T22:30:30.451Z,81.22
2023-11-20T22:33:27.557Z,80.55
2023-11-20T22:36:15.152Z,80.77
2023-11-20T22:38:54.222Z,79.66
2023-11-20T22:41:24.742Z,79.90
2023-11-20T22:47:12.577Z,80.61
2023-11-20T22:49:49.218Z,80.62
2023-11-20T22:52:22.978Z,79.82
2023-11-20T22:54:51.241Z,80.47
2023-11-20T22:57:24.441Z,80.86
2023-11-20T23:00:05.019Z,81.41
2023-11-20T23:02:39.377Z,81.25
2023-11-20T23:05:26.873Z,81.32
2023-11-20T23:07:53.952Z,79.80
2023-11-20T23:10:55.030Z,80.05
2023-11-20T23:13:33.014Z,80.05
2023-11-20T23:16:03.463Z,80.61
2023-11-20T23:18:30.485Z,81.06
2023-11-20T23:20:58.830Z,82.02
2023-11-20T23:23:27.775Z,82.45
2023-11-20T23:25:54.539Z,82.43
2023-11-20T23:28:22.114Z,82.53
2023-11-20T23:30:48.964Z,83.33
2023-11-20T23:33:15.711Z,83.11
2023-11-20T23:35:42.773Z,83.36
2023-11-20T23:38:11.129Z,83.41
2023-11-20T23:40:37.923Z,83.57
2023-11-20T23:43:06.619Z,82.99
2023-11-20T23:45:33.320Z,83.01
2023-11-20T23:48:00.086Z,83.22
2023-11-20T23:50:29.449Z,83.35
2023-11-20T23:52:56.141Z,83.26
2023-11-20T23:55:24.254Z,83.24
2023-11-20T23:57:50.974Z,82.43
